createdAt,value
2022-09-22T00:01:30.738Z,4.30
2022-09-22T00:04:01.595Z,4.28
2022-09-22T00:06:31.997Z,4.70
2022-09-22T00:09:02.643Z,4.40
2022-09-22T00:14:01.604Z,4.57
2022-09-22T00:16:31.862Z,4.35
2022-09-22T00:19:00.294Z,3.80
2022-09-22T00:21:30.871Z,3.63
2022-09-22T00:26:28.728Z,3.40
2022-09-22T00:28:57.080Z,4.23
2022-09-22T00:31:26.585Z,4.20
2022-09-22T00:33:55.748Z,5.13
2022-09-22T00:36:25.705Z,4.10
2022-09-22T00:38:55.519Z,4.53
2022-09-22T00:41:25.882Z,4.40
2022-09-22T00:44:32.852Z,4.40
2022-09-22T00:47:06.721Z,4.28
2022-09-22T00:49:40.011Z,3.95
2022-09-22T00:52:08.465Z,4.05
2022-09-22T00:54:36.763Z,4.30
2022-09-22T00:57:11.265Z,3.83
2022-09-22T00:59:40.446Z,3.50
2022-09-22T01:02:10.226Z,4.40
2022-09-22T01:04:38.615Z,3.78
2022-09-22T01:07:07.206Z,3.55
2022-09-22T01:09:35.903Z,3.78
2022-09-22T01:12:05.399Z,4.00
2022-09-22T01:14:43.973Z,4.40
2022-09-22T01:17:21.984Z,4.55
2022-09-22T01:20:06.688Z,4.60
2022-09-22T01:22:55.769Z,5.00
2022-09-22T01:25:39.757Z,4.25
2022-09-22T01:28:26.122Z,3.90
2022-09-22T01:30:59.261Z,4.05
2022-09-22T01:33:35.265Z,4.18
2022-09-22T01:36:14.531Z,3.92
2022-09-22T01:38:49.250Z,4.07
2022-09-22T01:41:20.988Z,4.40
2022-09-22T01:43:52.454Z,4.40
2022-09-22T01:46:26.202Z,4.55
2022-09-22T01:48:56.813Z,4.68
2022-09-22T01:51:28.339Z,4.30
2022-09-22T01:54:03.131Z,4.18
2022-09-22T01:56:32.554Z,4.32
2022-09-22T01:59:04.202Z,4.22
2022-09-22T02:01:38.917Z,4.03
2022-09-22T02:04:10.856Z,4.32
2022-09-22T02:06:42.352Z,6.95
2022-09-22T02:09:12.115Z,5.00
2022-09-22T02:11:41.076Z,6.67
2022-09-22T02:14:09.875Z,7.00
2022-09-22T02:16:39.570Z,5.85
2022-09-22T02:19:13.495Z,5.03
2022-09-22T02:21:44.755Z,4.35
2022-09-22T02:24:28.249Z,4.47
2022-09-22T02:26:57.890Z,4.60
2022-09-22T02:29:27.730Z,4.70
2022-09-22T02:31:58.161Z,4.33
2022-09-22T02:34:26.609Z,4.60
2022-09-22T02:36:59.435Z,4.35
2022-09-22T02:39:30.459Z,3.90
2022-09-22T02:42:11.543Z,3.88
2022-09-22T02:44:45.380Z,3.72
2022-09-22T02:47:18.882Z,4.10
2022-09-22T02:49:48.340Z,3.90
2022-09-22T02:52:20.334Z,3.67
2022-09-22T02:54:48.931Z,3.33
2022-09-22T02:57:17.242Z,3.50
2022-09-22T02:59:45.626Z,3.55
2022-09-22T03:02:15.608Z,3.38
2022-09-22T03:04:43.981Z,4.00
2022-09-22T03:07:13.248Z,4.20
2022-09-22T03:09:41.624Z,3.75
2022-09-22T03:12:09.957Z,3.13
2022-09-22T03:14:38.304Z,3.08
2022-09-22T03:17:06.629Z,2.92
2022-09-22T03:19:36.388Z,3.42
2022-09-22T03:22:05.118Z,3.20
2022-09-22T03:24:33.454Z,3.42
2022-09-22T03:27:01.823Z,3.95
2022-09-22T03:29:30.228Z,3.70
2022-09-22T03:31:58.526Z,4.10
2022-09-22T03:34:26.833Z,4.38
2022-09-22T03:36:56.684Z,4.63
2022-09-22T03:39:24.986Z,5.00
2022-09-22T03:41:53.339Z,5.00
2022-09-22T03:44:21.675Z,5.55
2022-09-22T03:46:49.974Z,5.13
2022-09-22T03:49:18.320Z,4.82
2022-09-22T03:51:46.691Z,5.15
2022-09-22T03:54:16.420Z,5.47
2022-09-22T03:56:44.788Z,6.00
2022-09-22T03:59:13.073Z,5.13
2022-09-22T04:01:41.639Z,5.82
2022-09-22T04:04:10.108Z,6.05
2022-09-22T04:06:38.874Z,6.30
2022-09-22T04:09:07.539Z,5.82
2022-09-22T04:11:37.593Z,5.70
2022-09-22T04:14:05.921Z,5.93
2022-09-22T04:16:34.258Z,6.00
2022-09-22T04:19:05.058Z,5.10
2022-09-22T04:21:33.524Z,5.05
2022-09-22T04:24:02.198Z,5.05
2022-09-22T04:26:30.530Z,5.35
2022-09-22T04:29:00.344Z,5.00
2022-09-22T04:31:28.771Z,5.40
2022-09-22T04:33:57.322Z,4.80
2022-09-22T04:36:25.851Z,5.32
2022-09-22T04:38:55.444Z,5.00
2022-09-22T04:41:24.290Z,5.40
2022-09-22T04:43:52.728Z,5.53
2022-09-22T04:46:22.678Z,5.80
2022-09-22T04:48:51.290Z,5.25
2022-09-22T04:51:19.700Z,5.20
2022-09-22T04:53:48.075Z,5.38
2022-09-22T04:56:16.574Z,5.40
2022-09-22T04:58:44.949Z,6.80
2022-09-22T05:01:13.503Z,5.55
2022-09-22T05:03:43.250Z,5.38
2022-09-22T05:06:11.679Z,6.00
2022-09-22T05:08:40.222Z,5.10
2022-09-22T05:11:09.725Z,5.60
2022-09-22T05:13:41.160Z,5.45
2022-09-22T05:16:09.856Z,6.45
2022-09-22T05:18:39.613Z,5.97
2022-09-22T05:21:09.454Z,6.33
2022-09-22T05:23:37.771Z,6.75
2022-09-22T05:26:06.890Z,6.30
2022-09-22T05:28:35.641Z,6.18
2022-09-22T05:31:04.249Z,5.90
2022-09-22T05:33:32.554Z,6.57
2022-09-22T05:36:00.911Z,6.30
2022-09-22T05:38:30.952Z,6.38
2022-09-22T05:40:59.313Z,5.63
2022-09-22T05:43:27.653Z,6.60
2022-09-22T05:45:56.044Z,6.78
2022-09-22T05:48:27.602Z,8.35
2022-09-22T05:50:59.371Z,8.75
2022-09-22T05:53:28.307Z,9.13
2022-09-22T05:56:00.188Z,8.43
2022-09-22T05:58:28.482Z,8.48
2022-09-22T06:00:57.500Z,7.40
2022-09-22T06:03:26.139Z,7.10
2022-09-22T06:05:54.502Z,7.00
2022-09-22T06:08:22.851Z,7.40
2022-09-22T06:10:51.422Z,7.90
2022-09-22T06:13:21.211Z,6.47
2022-09-22T06:15:49.843Z,6.80
2022-09-22T06:18:24.116Z,6.10
2022-09-22T06:20:56.329Z,6.43
2022-09-22T06:23:26.382Z,6.80
2022-09-22T06:25:58.282Z,7.32
2022-09-22T06:28:28.005Z,5.63
2022-09-22T06:31:00.017Z,9.27
2022-09-22T06:33:28.792Z,5.00
2022-09-22T06:35:58.209Z,4.70
2022-09-22T06:38:26.613Z,4.88
2022-09-22T06:41:00.661Z,4.95
2022-09-22T06:43:30.451Z,4.90
2022-09-22T06:46:03.074Z,5.27
2022-09-22T06:48:32.039Z,5.00
2022-09-22T06:51:00.313Z,5.28
2022-09-22T06:53:28.945Z,5.40
2022-09-22T06:55:59.123Z,5.72
2022-09-22T06:58:29.098Z,6.30
2022-09-22T07:01:08.914Z,6.40
2022-09-22T07:06:09.563Z,6.68
2022-09-22T07:08:39.505Z,7.47
2022-09-22T07:11:09.118Z,6.55
2022-09-22T07:13:39.957Z,7.00
2022-09-22T07:16:11.346Z,7.32
2022-09-22T07:18:41.457Z,7.88
2022-09-22T07:21:11.750Z,6.80
2022-09-22T07:23:41.313Z,7.45
2022-09-22T07:26:12.286Z,6.80
2022-09-22T07:28:40.911Z,7.55
2022-09-22T07:31:12.693Z,6.53
2022-09-22T07:33:42.711Z,6.55
2022-09-22T07:36:14.023Z,6.80
2022-09-22T07:38:44.062Z,6.20
2022-09-22T07:41:13.608Z,7.53
2022-09-22T07:43:42.731Z,6.53
2022-09-22T07:46:13.371Z,5.88
2022-09-22T07:51:20.082Z,5.47
2022-09-22T07:53:49.962Z,4.88
2022-09-22T07:56:21.263Z,4.90
2022-09-22T07:58:50.733Z,4.68
2022-09-22T08:01:21.366Z,4.72
2022-09-22T08:06:23.605Z,4.40
2022-09-22T08:08:56.759Z,4.50
2022-09-22T08:11:27.684Z,4.70
2022-09-22T08:13:57.595Z,4.55
2022-09-22T08:16:29.448Z,4.18
2022-09-22T08:18:59.222Z,4.72
2022-09-22T08:21:30.004Z,4.50
2022-09-22T08:23:59.613Z,4.50
2022-09-22T08:26:28.147Z,4.63
2022-09-22T08:28:57.493Z,5.22
2022-09-22T08:31:28.299Z,4.65
2022-09-22T08:33:57.330Z,4.60
2022-09-22T08:36:27.696Z,4.53
2022-09-22T08:38:56.622Z,5.13
2022-09-22T08:41:31.342Z,5.47
2022-09-22T08:44:03.143Z,5.25
2022-09-22T08:46:34.306Z,5.10
2022-09-22T08:49:25.964Z,4.22
2022-09-22T08:51:56.235Z,3.97
2022-09-22T08:54:27.914Z,4.25
2022-09-22T08:57:04.273Z,4.38
2022-09-22T08:59:36.160Z,4.22
2022-09-22T09:02:26.830Z,3.85
2022-09-22T09:07:44.019Z,3.20
2022-09-22T09:10:25.697Z,3.57
2022-09-22T09:13:02.763Z,3.20
2022-09-22T09:15:41.689Z,3.53
2022-09-22T09:18:16.327Z,3.20
2022-09-22T09:20:46.620Z,4.03
2022-09-22T09:23:18.898Z,3.55
2022-09-22T09:25:52.403Z,3.90
2022-09-22T09:28:27.011Z,3.70
2022-09-22T09:31:02.369Z,3.10
2022-09-22T09:33:35.199Z,2.90
2022-09-22T09:36:04.599Z,3.47
2022-09-22T09:38:37.867Z,3.15
2022-09-22T09:41:14.398Z,3.20
2022-09-22T09:43:45.629Z,3.08
2022-09-22T09:46:19.385Z,3.28
2022-09-22T09:49:02.987Z,3.28
2022-09-22T09:51:31.420Z,2.75
2022-09-22T09:54:05.552Z,2.70
2022-09-22T09:56:37.098Z,2.50
2022-09-22T09:59:24.725Z,2.22
2022-09-22T10:01:55.093Z,1.92
2022-09-22T10:04:30.400Z,2.53
2022-09-22T10:07:12.734Z,2.20
2022-09-22T10:09:41.925Z,2.30
2022-09-22T10:12:22.438Z,2.22
2022-09-22T10:14:52.869Z,1.83
2022-09-22T10:17:23.140Z,1.90
2022-09-22T10:19:52.955Z,1.90
2022-09-22T10:22:26.725Z,2.03
2022-09-22T10:24:58.281Z,1.70
2022-09-22T10:27:28.992Z,1.40
2022-09-22T10:30:22.888Z,1.60
2022-09-22T10:33:12.420Z,1.65
2022-09-22T10:35:43.052Z,1.77
2022-09-22T10:38:22.314Z,1.70
2022-09-22T10:40:56.445Z,1.63
2022-09-22T10:43:38.943Z,1.42
2022-09-22T10:46:18.866Z,1.30
2022-09-22T10:48:50.267Z,1.40
2022-09-22T10:51:28.679Z,1.52
2022-09-22T10:54:16.393Z,1.85
2022-09-22T10:56:47.709Z,1.40
2022-09-22T10:59:39.139Z,1.40
2022-09-22T11:02:35.055Z,1.40
2022-09-22T11:05:40.441Z,1.52
2022-09-22T11:08:30.811Z,1.60
2022-09-22T11:11:21.967Z,1.50
2022-09-22T11:13:59.683Z,1.70
2022-09-22T11:16:42.017Z,1.60
2022-09-22T11:19:31.619Z,1.50
2022-09-22T11:22:13.600Z,1.75
2022-09-22T11:25:03.763Z,1.50
2022-09-22T11:27:43.950Z,1.80
2022-09-22T11:30:20.741Z,6.50
2022-09-22T11:33:13.195Z,1.88
2022-09-22T11:36:01.859Z,1.80
2022-09-22T11:38:53.917Z,1.95
2022-09-22T11:41:29.490Z,1.60
2022-09-22T11:44:29.550Z,2.00
2022-09-22T11:47:13.994Z,1.95
2022-09-22T11:49:56.182Z,1.90
2022-09-22T11:52:33.080Z,2.03
2022-09-22T11:55:14.903Z,2.15
2022-09-22T11:57:47.302Z,2.08
2022-09-22T12:00:19.004Z,2.20
2022-09-22T12:02:50.757Z,2.38
2022-09-22T12:05:21.649Z,1.98
2022-09-22T12:07:55.677Z,1.88
2022-09-22T12:10:33.596Z,1.95
2022-09-22T12:13:04.404Z,2.42
2022-09-22T12:15:36.363Z,2.10
2022-09-22T12:18:17.960Z,2.15
2022-09-22T12:21:00.536Z,2.15
2022-09-22T12:23:41.267Z,2.38
2022-09-22T12:26:11.536Z,2.42
2022-09-22T12:28:43.046Z,2.30
2022-09-22T12:31:14.161Z,2.35
2022-09-22T12:33:48.528Z,2.40
2022-09-22T12:36:17.695Z,2.10
2022-09-22T12:38:46.456Z,2.55
2022-09-22T12:41:18.923Z,1.80
2022-09-22T12:43:48.868Z,2.10
2022-09-22T12:46:34.832Z,2.20
2022-09-22T12:49:09.205Z,2.10
2022-09-22T12:51:39.519Z,1.95
2022-09-22T12:54:47.225Z,1.95
2022-09-22T12:57:28.851Z,1.80
2022-09-22T13:00:32.203Z,1.77
2022-09-22T13:03:02.210Z,1.65
2022-09-22T13:05:37.738Z,2.00
2022-09-22T13:08:06.138Z,2.00
2022-09-22T13:10:51.826Z,1.98
2022-09-22T13:13:42.931Z,2.20
2022-09-22T13:16:37.406Z,1.77
2022-09-22T13:19:11.020Z,1.98
2022-09-22T13:21:41.659Z,1.80
2022-09-22T13:24:23.665Z,2.88
2022-09-22T13:27:04.716Z,2.85
2022-09-22T13:29:34.490Z,2.25
2022-09-22T13:32:18.084Z,2.00
2022-09-22T13:34:46.824Z,2.17
2022-09-22T13:37:22.427Z,2.20
2022-09-22T13:39:52.771Z,2.28
2022-09-22T13:42:23.283Z,2.47
2022-09-22T13:47:28.066Z,2.65
2022-09-22T13:49:58.517Z,2.42
2022-09-22T13:54:57.874Z,2.20
2022-09-22T13:57:29.130Z,1.98
2022-09-22T13:59:59.823Z,1.75
2022-09-22T14:02:32.518Z,1.55
2022-09-22T14:05:04.100Z,2.00
2022-09-22T14:07:38.296Z,1.83
2022-09-22T14:10:17.542Z,1.90
2022-09-22T14:12:45.942Z,1.70
2022-09-22T14:15:44.541Z,1.70
2022-09-22T14:18:21.009Z,1.58
2022-09-22T14:20:49.650Z,1.90
2022-09-22T14:23:19.850Z,1.98
2022-09-22T14:25:48.138Z,1.90
2022-09-22T14:28:21.893Z,2.00
2022-09-22T14:30:50.809Z,2.35
2022-09-22T14:33:23.306Z,1.95
2022-09-22T14:35:52.861Z,1.95
2022-09-22T14:38:24.038Z,1.80
2022-09-22T14:40:54.109Z,1.90
2022-09-22T14:43:24.862Z,1.80
2022-09-22T14:46:00.635Z,1.60
2022-09-22T14:48:31.831Z,1.70
2022-09-22T14:51:02.722Z,1.80
2022-09-22T14:53:33.771Z,1.50
2022-09-22T14:56:06.000Z,1.80
2022-09-22T14:58:40.762Z,1.40
2022-09-22T15:01:38.074Z,1.50
2022-09-22T15:04:17.355Z,2.00
2022-09-22T15:06:47.913Z,2.03
2022-09-22T15:09:23.895Z,1.70
2022-09-22T15:11:54.831Z,1.70
2022-09-22T15:14:42.998Z,2.10
2022-09-22T15:17:54.879Z,1.70
2022-09-22T15:20:26.979Z,1.55
2022-09-22T15:22:55.432Z,1.75
2022-09-22T15:25:24.113Z,1.85
2022-09-22T15:27:53.456Z,1.85
2022-09-22T15:30:22.943Z,2.00
2022-09-22T15:32:51.267Z,2.00
2022-09-22T15:35:20.351Z,2.00
2022-09-22T15:37:50.888Z,1.70
2022-09-22T15:43:11.234Z,2.60
2022-09-22T15:45:38.541Z,2.20
2022-09-22T15:48:06.936Z,2.28
2022-09-22T15:50:35.253Z,2.60
2022-09-22T15:53:04.942Z,2.42
2022-09-22T15:55:34.437Z,2.28
2022-09-22T15:58:07.399Z,2.15
2022-09-22T16:00:36.077Z,1.90
2022-09-22T16:03:09.784Z,2.00
2022-09-22T16:05:38.109Z,1.92
2022-09-22T16:08:08.396Z,2.10
2022-09-22T16:10:36.665Z,2.30
2022-09-22T16:13:05.893Z,1.75
2022-09-22T16:15:34.225Z,1.63
2022-09-22T16:18:02.484Z,1.80
2022-09-22T16:20:30.816Z,1.83
2022-09-22T16:22:59.135Z,2.17
2022-09-22T16:25:31.107Z,1.92
2022-09-22T16:27:59.380Z,2.13
2022-09-22T16:30:28.287Z,2.92
2022-09-22T16:32:56.562Z,3.08
2022-09-22T16:35:25.369Z,2.70
2022-09-22T16:37:57.244Z,3.97
2022-09-22T16:40:26.329Z,3.75
2022-09-22T16:42:56.031Z,2.75
2022-09-22T16:45:38.390Z,3.40
2022-09-22T16:48:07.605Z,2.90
2022-09-22T16:50:37.655Z,2.85
2022-09-22T16:53:07.917Z,2.60
2022-09-22T16:55:37.530Z,3.10
2022-09-22T16:58:13.168Z,3.45
2022-09-22T17:00:41.721Z,5.70
2022-09-22T17:03:10.099Z,6.05
2022-09-22T17:05:39.723Z,4.55
2022-09-22T17:08:08.479Z,3.70
2022-09-22T17:10:36.817Z,3.22
2022-09-22T17:13:05.279Z,2.28
2022-09-22T17:15:36.108Z,2.38
2022-09-22T17:18:04.983Z,2.30
2022-09-22T17:20:33.241Z,2.30
2022-09-22T17:23:02.042Z,2.72
2022-09-22T17:25:30.399Z,2.15
2022-09-22T17:27:59.094Z,2.63
2022-09-22T17:30:28.731Z,3.00
2022-09-22T17:32:58.378Z,3.10
2022-09-22T17:35:26.851Z,3.90
2022-09-22T17:37:55.191Z,3.30
2022-09-22T17:40:23.563Z,3.90
2022-09-22T17:42:51.875Z,3.38
2022-09-22T17:45:20.218Z,3.50
2022-09-22T17:48:06.043Z,3.55
2022-09-22T17:50:53.232Z,3.72
2022-09-22T17:53:39.034Z,3.50
2022-09-22T17:56:09.554Z,3.15
2022-09-22T17:58:40.780Z,3.42
2022-09-22T18:01:09.027Z,3.45
2022-09-22T18:03:37.309Z,3.00
2022-09-22T18:06:14.632Z,3.08
2022-09-22T18:08:44.614Z,3.38
2022-09-22T18:11:13.658Z,4.10
2022-09-22T18:16:36.729Z,3.35
2022-09-22T18:19:05.716Z,2.97
2022-09-22T18:21:35.449Z,3.38
2022-09-22T18:24:04.106Z,4.27
2022-09-22T18:26:38.349Z,3.40
2022-09-22T18:29:10.062Z,2.95
2022-09-22T18:31:38.870Z,3.60
2022-09-22T18:34:08.456Z,3.72
2022-09-22T18:36:44.800Z,3.72
2022-09-22T18:39:13.332Z,3.50
2022-09-22T18:41:41.987Z,3.10
2022-09-22T18:44:13.367Z,3.30
2022-09-22T18:46:42.277Z,3.90
2022-09-22T18:49:10.592Z,3.42
2022-09-22T18:51:42.688Z,3.60
2022-09-22T18:54:15.401Z,3.50
2022-09-22T18:56:45.798Z,5.00
2022-09-22T18:59:15.592Z,3.95
2022-09-22T19:01:44.609Z,3.17
2022-09-22T19:04:17.353Z,3.75
2022-09-22T19:07:05.279Z,3.28
2022-09-22T19:09:34.130Z,3.80
2022-09-22T19:12:04.206Z,3.22
2022-09-22T19:14:39.115Z,3.78
2022-09-22T19:17:08.894Z,3.53
2022-09-22T19:19:37.983Z,3.25
2022-09-22T19:22:09.066Z,3.35
2022-09-22T19:24:38.079Z,3.40
2022-09-22T19:27:08.670Z,3.55
2022-09-22T19:32:05.987Z,3.58
2022-09-22T19:34:34.521Z,3.42
2022-09-22T19:37:02.885Z,3.67
2022-09-22T19:39:32.864Z,3.50
2022-09-22T19:42:01.462Z,3.45
2022-09-22T19:44:32.434Z,3.25
2022-09-22T19:47:00.783Z,3.58
2022-09-22T19:49:29.615Z,3.15
2022-09-22T19:51:57.956Z,3.30
2022-09-22T19:54:27.156Z,3.65
2022-09-22T19:56:57.001Z,3.60
2022-09-22T19:59:25.380Z,3.55
2022-09-22T20:01:55.069Z,3.70
2022-09-22T20:04:23.505Z,3.40
2022-09-22T20:06:52.022Z,3.38
2022-09-22T20:09:20.303Z,3.35
2022-09-22T20:11:52.294Z,3.30
2022-09-22T20:14:22.202Z,3.60
2022-09-22T20:16:52.735Z,3.58
2022-09-22T20:19:21.568Z,3.40
2022-09-22T20:21:51.508Z,3.38
2022-09-22T20:24:22.254Z,3.65
2022-09-22T20:26:50.710Z,3.60
2022-09-22T20:29:20.645Z,3.40
2022-09-22T20:31:50.355Z,3.58
2022-09-22T20:34:18.686Z,4.10
2022-09-22T20:36:46.971Z,3.88
2022-09-22T20:39:15.650Z,3.20
2022-09-22T20:41:44.776Z,3.25
2022-09-22T20:44:15.822Z,3.42
2022-09-22T20:46:44.186Z,4.22
2022-09-22T20:49:15.194Z,4.40
2022-09-22T20:51:43.630Z,4.38
2022-09-22T20:54:11.976Z,3.97
2022-09-22T20:56:42.769Z,3.80
2022-09-22T20:59:11.495Z,3.25
2022-09-22T21:01:39.858Z,3.30
2022-09-22T21:04:10.081Z,3.80
2022-09-22T21:06:42.542Z,4.43
2022-09-22T21:09:28.439Z,4.20
2022-09-22T21:11:56.882Z,3.85
2022-09-22T21:14:25.130Z,3.83
2022-09-22T21:16:53.496Z,3.40
2022-09-22T21:19:21.874Z,4.00
2022-09-22T21:21:53.062Z,4.10
2022-09-22T21:27:14.164Z,4.07
2022-09-22T21:29:42.560Z,3.70
2022-09-22T21:32:10.872Z,3.72
2022-09-22T21:34:39.234Z,4.05
2022-09-22T21:37:09.761Z,4.30
2022-09-22T21:39:38.118Z,4.10
2022-09-22T21:42:06.560Z,3.92
2022-09-22T21:44:34.848Z,3.90
2022-09-22T21:47:03.136Z,4.43
2022-09-22T21:49:31.443Z,3.90
2022-09-22T21:52:00.736Z,4.30
2022-09-22T21:54:31.173Z,4.00
2022-09-22T21:56:59.409Z,3.58
2022-09-22T21:59:27.683Z,3.67
2022-09-22T22:01:56.022Z,3.65
2022-09-22T22:04:24.496Z,3.53
2022-09-22T22:06:52.726Z,3.90
2022-09-22T22:09:22.478Z,3.97
2022-09-22T22:11:54.726Z,4.10
2022-09-22T22:14:24.375Z,3.83
2022-09-22T22:16:54.220Z,4.35
2022-09-22T22:19:25.790Z,3.85
2022-09-22T22:21:54.774Z,4.40
2022-09-22T22:24:29.302Z,4.20
2022-09-22T22:27:01.498Z,4.28
2022-09-22T22:29:31.675Z,4.55
2022-09-22T22:32:00.215Z,4.40
2022-09-22T22:34:28.580Z,4.40
2022-09-22T22:36:57.992Z,4.65
2022-09-22T22:39:26.395Z,4.72
2022-09-22T22:41:55.640Z,4.45
2022-09-22T22:44:25.451Z,4.88
2022-09-22T22:46:53.774Z,4.72
2022-09-22T22:49:22.151Z,3.80
2022-09-22T22:51:52.371Z,3.47
2022-09-22T22:54:20.768Z,3.60
2022-09-22T22:56:51.262Z,3.80
2022-09-22T22:59:20.016Z,3.78
2022-09-22T23:01:49.763Z,3.58
2022-09-22T23:04:18.236Z,3.10
2022-09-22T23:06:48.461Z,3.55
2022-09-22T23:09:17.959Z,3.20
2022-09-22T23:11:47.558Z,4.07
2022-09-22T23:14:16.488Z,4.22
2022-09-22T23:16:47.273Z,4.45
2022-09-22T23:19:18.148Z,4.85
2022-09-22T23:21:46.955Z,4.75
2022-09-22T23:24:16.935Z,4.72
2022-09-22T23:26:45.732Z,4.72
2022-09-22T23:29:14.626Z,5.15
2022-09-22T23:31:42.903Z,5.22
2022-09-22T23:34:11.215Z,5.80
2022-09-22T23:36:40.896Z,5.53
2022-09-22T23:39:09.140Z,5.40
2022-09-22T23:41:38.380Z,5.20
2022-09-22T23:44:07.422Z,5.15
2022-09-22T23:46:37.510Z,5.47
2022-09-22T23:49:06.425Z,5.55
2022-09-22T23:51:35.014Z,6.47
2022-09-22T23:54:04.889Z,6.60
2022-09-22T23:56:33.188Z,6.80
2022-09-22T23:59:01.481Z,6.25
